sensor_id;sensor_type;location;lat;lon;timestamp;temperature;humidity
20498;DHT22;10407;53.238;10.448;2023-04-03T00:00:57;1.90;99.90
20498;DHT22;10407;53.238;10.448;2023-04-03T00:03:24;1.90;99.90
20498;DHT22;10407;53.238;10.448;2023-04-03T00:05:52;1.90;99.90
20498;DHT22;10407;53.238;10.448;2023-04-03T00:08:20;1.90;99.90
20498;DHT22;10407;53.238;10.448;2023-04-03T00:10:48;2.00;99.90
20498;DHT22;10407;53.238;10.448;2023-04-03T00:13:16;1.90;99.90
20498;DHT22;10407;53.238;10.448;2023-04-03T00:15:44;1.90;99.90
20498;DHT22;10407;53.238;10.448;2023-04-03T00:18:12;1.80;99.90
20498;DHT22;10407;53.238;10.448;2023-04-03T00:20:39;1.60;99.90
20498;DHT22;10407;53.238;10.448;2023-04-03T00:23:07;1.70;99.90
20498;DHT22;10407;53.238;10.448;2023-04-03T00:25:35;1.60;99.90
20498;DHT22;10407;53.238;10.448;2023-04-03T00:28:03;1.60;99.90
20498;DHT22;10407;53.238;10.448;2023-04-03T00:30:31;1.70;99.90
20498;DHT22;10407;53.238;10.448;2023-04-03T00:32:59;1.60;99.90
20498;DHT22;10407;53.238;10.448;2023-04-03T00:35:28;1.60;99.90
20498;DHT22;10407;53.238;10.448;2023-04-03T00:37:56;1.50;99.90
20498;DHT22;10407;53.238;10.448;2023-04-03T00:40:25;1.50;99.90
20498;DHT22;10407;53.238;10.448;2023-04-03T00:42:58;1.70;99.90
20498;DHT22;10407;53.238;10.448;2023-04-03T00:45:37;1.50;99.90
20498;DHT22;10407;53.238;10.448;2023-04-03T00:48:08;1.40;99.90
20498;DHT22;10407;53.238;10.448;2023-04-03T00:50:38;1.50;99.90
20498;DHT22;10407;53.238;10.448;2023-04-03T00:53:09;1.30;99.90
20498;DHT22;10407;53.238;10.448;2023-04-03T00:55:38;1.40;99.90
20498;DHT22;10407;53.238;10.448;2023-04-03T00:58:07;1.60;99.90
20498;DHT22;10407;53.238;10.448;2023-04-03T01:00:37;1.60;99.90
20498;DHT22;10407;53.238;10.448;2023-04-03T01:03:06;1.60;99.90
20498;DHT22;10407;53.238;10.448;2023-04-03T01:05:33;1.60;99.90
20498;DHT22;10407;53.238;10.448;2023-04-03T01:08:01;1.50;99.90
20498;DHT22;10407;53.238;10.448;2023-04-03T01:10:29;1.70;99.90
20498;DHT22;10407;53.238;10.448;2023-04-03T01:13:01;1.70;99.90
20498;DHT22;10407;53.238;10.448;2023-04-03T01:15:27;1.70;99.90
20498;DHT22;10407;53.238;10.448;2023-04-03T01:17:57;1.60;99.90
20498;DHT22;10407;53.238;10.448;2023-04-03T01:25:49;1.50;99.90
20498;DHT22;10407;53.238;10.448;2023-04-03T01:28:18;1.40;99.90
20498;DHT22;10407;53.238;10.448;2023-04-03T01:33:34;1.50;99.90
20498;DHT22;10407;53.238;10.448;2023-04-03T01:36:02;1.40;99.90
20498;DHT22;10407;53.238;10.448;2023-04-03T01:38:30;1.50;99.90
20498;DHT22;10407;53.238;10.448;2023-04-03T01:40:58;1.50;99.90
20498;DHT22;10407;53.238;10.448;2023-04-03T01:43:26;1.30;99.90
20498;DHT22;10407;53.238;10.448;2023-04-03T01:45:53;1.30;99.90
20498;DHT22;10407;53.238;10.448;2023-04-03T01:48:21;1.30;99.90
20498;DHT22;10407;53.238;10.448;2023-04-03T01:50:48;1.40;99.90
20498;DHT22;10407;53.238;10.448;2023-04-03T01:53:16;1.50;99.90
20498;DHT22;10407;53.238;10.448;2023-04-03T01:55:44;1.40;99.90
20498;DHT22;10407;53.238;10.448;2023-04-03T01:58:11;1.50;99.90
20498;DHT22;10407;53.238;10.448;2023-04-03T02:00:39;1.50;99.90
20498;DHT22;10407;53.238;10.448;2023-04-03T02:03:06;1.60;99.90
20498;DHT22;10407;53.238;10.448;2023-04-03T02:05:34;1.50;99.90
20498;DHT22;10407;53.238;10.448;2023-04-03T02:08:02;1.20;99.90
20498;DHT22;10407;53.238;10.448;2023-04-03T02:10:29;1.20;99.90
20498;DHT22;10407;53.238;10.448;2023-04-03T02:12:57;1.00;99.90
20498;DHT22;10407;53.238;10.448;2023-04-03T02:15:24;1.00;99.90
20498;DHT22;10407;53.238;10.448;2023-04-03T02:17:52;0.90;99.90
20498;DHT22;10407;53.238;10.448;2023-04-03T02:20:20;0.90;99.90
20498;DHT22;10407;53.238;10.448;2023-04-03T02:22:47;0.70;99.90
20498;DHT22;10407;53.238;10.448;2023-04-03T02:25:15;1.00;99.90
20498;DHT22;10407;53.238;10.448;2023-04-03T02:27:44;0.90;99.90
20498;DHT22;10407;53.238;10.448;2023-04-03T02:30:12;0.90;99.90
20498;DHT22;10407;53.238;10.448;2023-04-03T02:32:42;0.80;99.90
20498;DHT22;10407;53.238;10.448;2023-04-03T02:35:10;1.10;99.90
20498;DHT22;10407;53.238;10.448;2023-04-03T02:37:38;1.00;99.90
20498;DHT22;10407;53.238;10.448;2023-04-03T02:40:07;0.90;99.90
20498;DHT22;10407;53.238;10.448;2023-04-03T02:42:35;0.90;99.90
20498;DHT22;10407;53.238;10.448;2023-04-03T02:45:02;0.90;99.90
20498;DHT22;10407;53.238;10.448;2023-04-03T02:47:30;0.80;99.90
20498;DHT22;10407;53.238;10.448;2023-04-03T02:49:57;1.00;99.90
20498;DHT22;10407;53.238;10.448;2023-04-03T02:52:25;0.80;99.90
20498;DHT22;10407;53.238;10.448;2023-04-03T02:54:53;0.80;99.90
20498;DHT22;10407;53.238;10.448;2023-04-03T02:57:20;1.10;99.90
20498;DHT22;10407;53.238;10.448;2023-04-03T02:59:48;1.10;99.90
20498;DHT22;10407;53.238;10.448;2023-04-03T03:02:15;1.00;99.90
20498;DHT22;10407;53.238;10.448;2023-04-03T03:04:43;1.00;99.90
20498;DHT22;10407;53.238;10.448;2023-04-03T03:07:10;1.10;99.90
20498;DHT22;10407;53.238;10.448;2023-04-03T03:09:38;0.90;99.90
20498;DHT22;10407;53.238;10.448;2023-04-03T03:12:06;0.90;99.90
20498;DHT22;10407;53.238;10.448;2023-04-03T03:14:33;0.90;99.90
20498;DHT22;10407;53.238;10.448;2023-04-03T03:17:01;0.90;99.90
20498;DHT22;10407;53.238;10.448;2023-04-03T03:19:28;0.80;99.90
20498;DHT22;10407;53.238;10.448;2023-04-03T03:21:56;0.80;99.90
20498;DHT22;10407;53.238;10.448;2023-04-03T03:24:24;0.80;99.90
20498;DHT22;10407;53.238;10.448;2023-04-03T03:26:51;0.80;99.90
20498;DHT22;10407;53.238;10.448;2023-04-03T03:29:19;0.80;99.90
20498;DHT22;10407;53.238;10.448;2023-04-03T03:31:46;0.90;99.90
20498;DHT22;10407;53.238;10.448;2023-04-03T03:34:14;0.90;99.90
20498;DHT22;10407;53.238;10.448;2023-04-03T03:36:41;0.80;99.90
20498;DHT22;10407;53.238;10.448;2023-04-03T03:39:10;0.60;99.90
20498;DHT22;10407;53.238;10.448;2023-04-03T03:41:37;0.70;99.90
20498;DHT22;10407;53.238;10.448;2023-04-03T03:44:05;0.70;99.90
20498;DHT22;10407;53.238;10.448;2023-04-03T03:46:32;0.70;99.90
20498;DHT22;10407;53.238;10.448;2023-04-03T03:49:00;0.80;99.90
20498;DHT22;10407;53.238;10.448;2023-04-03T03:51:27;0.90;99.90
20498;DHT22;10407;53.238;10.448;2023-04-03T03:53:55;0.70;99.90
20498;DHT22;10407;53.238;10.448;2023-04-03T03:56:22;0.70;99.90
20498;DHT22;10407;53.238;10.448;2023-04-03T03:58:50;0.80;99.90
20498;DHT22;10407;53.238;10.448;2023-04-03T04:01:18;0.90;99.90
20498;DHT22;10407;53.238;10.448;2023-04-03T04:03:47;0.80;99.90
20498;DHT22;10407;53.238;10.448;2023-04-03T04:06:15;0.90;99.90
20498;DHT22;10407;53.238;10.448;2023-04-03T04:08:43;0.80;99.90
20498;DHT22;10407;53.238;10.448;2023-04-03T04:11:10;0.80;99.90
20498;DHT22;10407;53.238;10.448;2023-04-03T04:13:38;0.70;99.90
20498;DHT22;10407;53.238;10.448;2023-04-03T04:16:06;0.70;99.90
20498;DHT22;10407;53.238;10.448;2023-04-03T04:18:34;0.50;99.90
20498;DHT22;10407;53.238;10.448;2023-04-03T04:21:01;0.50;99.90
20498;DHT22;10407;53.238;10.448;2023-04-03T04:23:29;0.50;99.90
20498;DHT22;10407;53.238;10.448;2023-04-03T04:25:56;0.60;99.90
20498;DHT22;10407;53.238;10.448;2023-04-03T04:28:24;0.70;99.90
20498;DHT22;10407;53.238;10.448;2023-04-03T04:30:51;0.70;99.90
20498;DHT22;10407;53.238;10.448;2023-04-03T04:33:19;0.70;99.90
20498;DHT22;10407;53.238;10.448;2023-04-03T04:35:48;0.60;99.90
20498;DHT22;10407;53.238;10.448;2023-04-03T04:38:15;0.80;99.90
20498;DHT22;10407;53.238;10.448;2023-04-03T04:40:43;0.60;99.90
20498;DHT22;10407;53.238;10.448;2023-04-03T04:43:10;0.70;99.90
20498;DHT22;10407;53.238;10.448;2023-04-03T04:45:40;0.70;99.90
20498;DHT22;10407;53.238;10.448;2023-04-03T04:48:07;0.60;99.90
20498;DHT22;10407;53.238;10.448;2023-04-03T04:50:35;0.50;99.90
20498;DHT22;10407;53.238;10.448;2023-04-03T04:53:03;0.60;99.90
20498;DHT22;10407;53.238;10.448;2023-04-03T04:55:30;0.60;99.90
20498;DHT22;10407;53.238;10.448;2023-04-03T04:57:58;0.60;99.90
20498;DHT22;10407;53.238;10.448;2023-04-03T05:00:26;0.70;99.90
20498;DHT22;10407;53.238;10.448;2023-04-03T05:02:53;0.60;99.90
20498;DHT22;10407;53.238;10.448;2023-04-03T05:05:21;0.70;99.90
20498;DHT22;10407;53.238;10.448;2023-04-03T05:07:49;1.20;99.90
20498;DHT22;10407;53.238;10.448;2023-04-03T05:10:16;1.40;99.90
20498;DHT22;10407;53.238;10.448;2023-04-03T05:12:44;1.90;99.90
20498;DHT22;10407;53.238;10.448;2023-04-03T05:15:12;2.10;99.90
20498;DHT22;10407;53.238;10.448;2023-04-03T05:17:39;3.10;99.90
20498;DHT22;10407;53.238;10.448;2023-04-03T05:20:07;4.30;99.90
20498;DHT22;10407;53.238;10.448;2023-04-03T05:22:35;5.10;99.90
20498;DHT22;10407;53.238;10.448;2023-04-03T05:25:02;5.60;99.90
20498;DHT22;10407;53.238;10.448;2023-04-03T05:27:30;6.10;99.90
20498;DHT22;10407;53.238;10.448;2023-04-03T05:29:58;6.20;99.90
20498;DHT22;10407;53.238;10.448;2023-04-03T05:32:26;6.60;98.70
20498;DHT22;10407;53.238;10.448;2023-04-03T05:34:54;7.10;96.50
20498;DHT22;10407;53.238;10.448;2023-04-03T05:37:21;7.30;95.70
20498;DHT22;10407;53.238;10.448;2023-04-03T05:39:49;7.60;94.40
20498;DHT22;10407;53.238;10.448;2023-04-03T05:42:16;7.90;92.50
20498;DHT22;10407;53.238;10.448;2023-04-03T05:44:44;8.00;92.30
20498;DHT22;10407;53.238;10.448;2023-04-03T05:47:13;8.30;91.50
20498;DHT22;10407;53.238;10.448;2023-04-03T05:49:41;8.50;89.70
20498;DHT22;10407;53.238;10.448;2023-04-03T05:52:21;8.90;86.20
20498;DHT22;10407;53.238;10.448;2023-04-03T05:54:44;9.30;82.10
20498;DHT22;10407;53.238;10.448;2023-04-03T05:57:15;9.60;82.30
20498;DHT22;10407;53.238;10.448;2023-04-03T05:59:43;10.30;73.60
20498;DHT22;10407;53.238;10.448;2023-04-03T06:02:16;10.30;70.70
20498;DHT22;10407;53.238;10.448;2023-04-03T06:04:44;10.40;69.10
20498;DHT22;10407;53.238;10.448;2023-04-03T06:07:14;9.90;76.10
20498;DHT22;10407;53.238;10.448;2023-04-03T06:09:42;8.80;85.40
20498;DHT22;10407;53.238;10.448;2023-04-03T06:12:10;8.80;92.90
20498;DHT22;10407;53.238;10.448;2023-04-03T06:14:38;9.00;90.60
20498;DHT22;10407;53.238;10.448;2023-04-03T06:17:05;9.00;91.70
20498;DHT22;10407;53.238;10.448;2023-04-03T06:19:33;8.30;92.30
20498;DHT22;10407;53.238;10.448;2023-04-03T06:22:01;7.60;97.70
20498;DHT22;10407;53.238;10.448;2023-04-03T06:24:29;6.40;99.90
20498;DHT22;10407;53.238;10.448;2023-04-03T06:26:57;6.50;99.90
20498;DHT22;10407;53.238;10.448;2023-04-03T06:29:25;5.70;99.90
20498;DHT22;10407;53.238;10.448;2023-04-03T06:31:52;5.30;99.90
20498;DHT22;10407;53.238;10.448;2023-04-03T06:34:20;5.80;99.90
20498;DHT22;10407;53.238;10.448;2023-04-03T06:36:48;6.80;99.90
20498;DHT22;10407;53.238;10.448;2023-04-03T06:39:37;6.60;99.90
20498;DHT22;10407;53.238;10.448;2023-04-03T06:42:04;5.90;99.90
20498;DHT22;10407;53.238;10.448;2023-04-03T06:44:32;5.60;99.90
20498;DHT22;10407;53.238;10.448;2023-04-03T06:47:01;5.10;99.90
20498;DHT22;10407;53.238;10.448;2023-04-03T06:49:28;6.00;99.90
20498;DHT22;10407;53.238;10.448;2023-04-03T06:51:56;5.80;99.90
20498;DHT22;10407;53.238;10.448;2023-04-03T06:54:24;5.60;99.90
20498;DHT22;10407;53.238;10.448;2023-04-03T06:56:51;5.30;99.90
20498;DHT22;10407;53.238;10.448;2023-04-03T06:59:19;5.60;99.90
20498;DHT22;10407;53.238;10.448;2023-04-03T07:01:46;5.00;99.90
20498;DHT22;10407;53.238;10.448;2023-04-03T07:04:14;6.00;99.90
20498;DHT22;10407;53.238;10.448;2023-04-03T07:06:42;6.90;99.00
20498;DHT22;10407;53.238;10.448;2023-04-03T07:09:10;6.70;99.90
20498;DHT22;10407;53.238;10.448;2023-04-03T07:11:37;6.60;94.30
20498;DHT22;10407;53.238;10.448;2023-04-03T07:14:05;6.60;98.30
20498;DHT22;10407;53.238;10.448;2023-04-03T07:16:35;5.70;99.90
20498;DHT22;10407;53.238;10.448;2023-04-03T07:19:03;6.10;97.40
20498;DHT22;10407;53.238;10.448;2023-04-03T07:21:30;6.00;97.60
20498;DHT22;10407;53.238;10.448;2023-04-03T07:23:58;7.10;98.00
20498;DHT22;10407;53.238;10.448;2023-04-03T07:26:26;6.50;94.90
20498;DHT22;10407;53.238;10.448;2023-04-03T07:28:53;6.80;97.60
20498;DHT22;10407;53.238;10.448;2023-04-03T07:31:21;7.20;92.60
20498;DHT22;10407;53.238;10.448;2023-04-03T07:33:49;6.80;94.60
20498;DHT22;10407;53.238;10.448;2023-04-03T07:36:18;5.70;97.70
20498;DHT22;10407;53.238;10.448;2023-04-03T07:38:46;5.20;99.10
20498;DHT22;10407;53.238;10.448;2023-04-03T07:41:16;6.10;97.50
20498;DHT22;10407;53.238;10.448;2023-04-03T07:43:45;6.10;93.90
20498;DHT22;10407;53.238;10.448;2023-04-03T07:46:13;5.90;95.80
20498;DHT22;10407;53.238;10.448;2023-04-03T07:48:41;6.10;93.90
20498;DHT22;10407;53.238;10.448;2023-04-03T07:51:09;6.40;95.50
20498;DHT22;10407;53.238;10.448;2023-04-03T07:53:37;6.00;94.60
20498;DHT22;10407;53.238;10.448;2023-04-03T07:56:06;6.30;94.50
20498;DHT22;10407;53.238;10.448;2023-04-03T07:58:33;6.10;92.80
20498;DHT22;10407;53.238;10.448;2023-04-03T08:01:01;6.10;94.10
20498;DHT22;10407;53.238;10.448;2023-04-03T08:03:28;5.80;95.90
20498;DHT22;10407;53.238;10.448;2023-04-03T08:06:01;5.90;92.60
20498;DHT22;10407;53.238;10.448;2023-04-03T08:08:26;6.60;92.10
20498;DHT22;10407;53.238;10.448;2023-04-03T08:10:58;7.00;86.70
20498;DHT22;10407;53.238;10.448;2023-04-03T08:13:26;6.50;86.90
20498;DHT22;10407;53.238;10.448;2023-04-03T08:15:54;6.70;90.80
20498;DHT22;10407;53.238;10.448;2023-04-03T08:18:24;6.90;87.20
20498;DHT22;10407;53.238;10.448;2023-04-03T08:20:53;8.00;80.10
20498;DHT22;10407;53.238;10.448;2023-04-03T08:23:20;7.30;79.70
20498;DHT22;10407;53.238;10.448;2023-04-03T08:25:48;6.90;82.00
20498;DHT22;10407;53.238;10.448;2023-04-03T08:28:15;7.80;82.60
20498;DHT22;10407;53.238;10.448;2023-04-03T08:30:43;6.70;85.00
20498;DHT22;10407;53.238;10.448;2023-04-03T08:33:11;7.50;74.70
20498;DHT22;10407;53.238;10.448;2023-04-03T08:35:39;8.00;77.40
20498;DHT22;10407;53.238;10.448;2023-04-03T08:38:09;8.40;77.50
20498;DHT22;10407;53.238;10.448;2023-04-03T08:40:37;9.00;68.00
20498;DHT22;10407;53.238;10.448;2023-04-03T08:45:48;8.60;64.60
20498;DHT22;10407;53.238;10.448;2023-04-03T08:48:26;8.40;53.30
20498;DHT22;10407;53.238;10.448;2023-04-03T08:51:00;8.30;59.70
20498;DHT22;10407;53.238;10.448;2023-04-03T08:53:25;7.60;49.60
20498;DHT22;10407;53.238;10.448;2023-04-03T08:55:55;7.40;55.20
20498;DHT22;10407;53.238;10.448;2023-04-03T08:58:29;7.80;53.50
20498;DHT22;10407;53.238;10.448;2023-04-03T09:01:02;8.20;53.50
20498;DHT22;10407;53.238;10.448;2023-04-03T09:03:36;7.40;50.60
20498;DHT22;10407;53.238;10.448;2023-04-03T09:11:23;7.60;49.70
20498;DHT22;10407;53.238;10.448;2023-04-03T09:13:57;8.00;51.10
20498;DHT22;10407;53.238;10.448;2023-04-03T09:16:47;7.50;46.00
20498;DHT22;10407;53.238;10.448;2023-04-03T09:22:28;7.40;50.60
20498;DHT22;10407;53.238;10.448;2023-04-03T09:27:40;8.50;48.20
20498;DHT22;10407;53.238;10.448;2023-04-03T09:30:18;8.90;43.20
20498;DHT22;10407;53.238;10.448;2023-04-03T09:32:44;8.70;40.80
20498;DHT22;10407;53.238;10.448;2023-04-03T09:35:26;8.40;43.60
20498;DHT22;10407;53.238;10.448;2023-04-03T09:40:41;9.80;41.00
20498;DHT22;10407;53.238;10.448;2023-04-03T09:45:49;8.50;42.80
20498;DHT22;10407;53.238;10.448;2023-04-03T09:48:25;8.40;39.30
20498;DHT22;10407;53.238;10.448;2023-04-03T09:50:57;8.30;39.00
20498;DHT22;10407;53.238;10.448;2023-04-03T09:53:43;9.00;43.90
20498;DHT22;10407;53.238;10.448;2023-04-03T10:01:37;7.70;42.30
20498;DHT22;10407;53.238;10.448;2023-04-03T10:04:19;7.50;43.50
20498;DHT22;10407;53.238;10.448;2023-04-03T10:06:51;8.70;40.10
20498;DHT22;10407;53.238;10.448;2023-04-03T10:09:28;8.30;39.30
20498;DHT22;10407;53.238;10.448;2023-04-03T10:12:07;8.10;40.20
20498;DHT22;10407;53.238;10.448;2023-04-03T10:14:39;8.60;40.60
20498;DHT22;10407;53.238;10.448;2023-04-03T10:19:58;9.10;34.90
20498;DHT22;10407;53.238;10.448;2023-04-03T10:22:31;8.60;38.80
20498;DHT22;10407;53.238;10.448;2023-04-03T10:27:55;7.80;38.80
20498;DHT22;10407;53.238;10.448;2023-04-03T10:41:31;7.50;39.20
20498;DHT22;10407;53.238;10.448;2023-04-03T10:46:38;7.90;33.20
20498;DHT22;10407;53.238;10.448;2023-04-03T10:49:17;8.10;34.30
20498;DHT22;10407;53.238;10.448;2023-04-03T10:54:36;10.10;35.30
20498;DHT22;10407;53.238;10.448;2023-04-03T10:57:06;10.10;33.70
20498;DHT22;10407;53.238;10.448;2023-04-03T10:59:41;9.80;32.60
20498;DHT22;10407;53.238;10.448;2023-04-03T11:02:25;8.30;29.80
20498;DHT22;10407;53.238;10.448;2023-04-03T11:04:53;7.80;33.50
20498;DHT22;10407;53.238;10.448;2023-04-03T11:07:32;8.10;33.00
20498;DHT22;10407;53.238;10.448;2023-04-03T11:15:17;7.30;32.20
20498;DHT22;10407;53.238;10.448;2023-04-03T11:18:00;7.40;32.40
20498;DHT22;10407;53.238;10.448;2023-04-03T11:20:33;8.10;30.30
20498;DHT22;10407;53.238;10.448;2023-04-03T11:23:28;8.50;29.30
20498;DHT22;10407;53.238;10.448;2023-04-03T11:25:56;8.40;29.80
20498;DHT22;10407;53.238;10.448;2023-04-03T11:28:23;7.10;30.90
20498;DHT22;10407;53.238;10.448;2023-04-03T11:31:12;7.30;34.10
20498;DHT22;10407;53.238;10.448;2023-04-03T11:36:30;8.50;28.70
20498;DHT22;10407;53.238;10.448;2023-04-03T11:39:00;8.80;30.30
20498;DHT22;10407;53.238;10.448;2023-04-03T11:41:30;7.80;29.60
20498;DHT22;10407;53.238;10.448;2023-04-03T11:44:04;7.70;28.80
20498;DHT22;10407;53.238;10.448;2023-04-03T11:46:52;7.10;29.40
20498;DHT22;10407;53.238;10.448;2023-04-03T12:00:59;7.50;35.30
20498;DHT22;10407;53.238;10.448;2023-04-03T12:11:14;7.30;35.00
20498;DHT22;10407;53.238;10.448;2023-04-03T12:19:35;7.90;34.30
20498;DHT22;10407;53.238;10.448;2023-04-03T12:22:07;7.50;33.40
20498;DHT22;10407;53.238;10.448;2023-04-03T12:24:41;7.90;34.00
20498;DHT22;10407;53.238;10.448;2023-04-03T12:27:23;8.10;31.80
20498;DHT22;10407;53.238;10.448;2023-04-03T12:29:56;8.50;28.30
20498;DHT22;10407;53.238;10.448;2023-04-03T12:35:51;8.00;28.40
20498;DHT22;10407;53.238;10.448;2023-04-03T12:38:29;7.70;30.50
20498;DHT22;10407;53.238;10.448;2023-04-03T12:41:16;7.50;30.70
20498;DHT22;10407;53.238;10.448;2023-04-03T12:46:23;7.90;34.60
20498;DHT22;10407;53.238;10.448;2023-04-03T12:48:56;8.10;34.20
20498;DHT22;10407;53.238;10.448;2023-04-03T12:51:42;8.20;33.10
20498;DHT22;10407;53.238;10.448;2023-04-03T12:56:43;7.60;35.60
20498;DHT22;10407;53.238;10.448;2023-04-03T12:59:25;7.40;36.40
20498;DHT22;10407;53.238;10.448;2023-04-03T13:02:02;7.30;36.70
20498;DHT22;10407;53.238;10.448;2023-04-03T13:04:32;7.70;34.90
20498;DHT22;10407;53.238;10.448;2023-04-03T13:07:00;7.50;34.20
20498;DHT22;10407;53.238;10.448;2023-04-03T13:09:31;8.30;32.40
20498;DHT22;10407;53.238;10.448;2023-04-03T13:12:02;7.80;31.40
20498;DHT22;10407;53.238;10.448;2023-04-03T13:14:30;8.00;32.80
20498;DHT22;10407;53.238;10.448;2023-04-03T13:17:06;8.10;30.60
20498;DHT22;10407;53.238;10.448;2023-04-03T13:19:32;8.30;31.70
20498;DHT22;10407;53.238;10.448;2023-04-03T13:22:11;8.50;32.60
20498;DHT22;10407;53.238;10.448;2023-04-03T13:24:38;8.20;33.40
20498;DHT22;10407;53.238;10.448;2023-04-03T13:27:06;7.70;32.50
20498;DHT22;10407;53.238;10.448;2023-04-03T13:29:36;7.70;36.40
20498;DHT22;10407;53.238;10.448;2023-04-03T13:32:05;8.10;35.20
20498;DHT22;10407;53.238;10.448;2023-04-03T13:34:38;8.20;33.90
20498;DHT22;10407;53.238;10.448;2023-04-03T13:37:11;8.00;34.20
20498;DHT22;10407;53.238;10.448;2023-04-03T13:39:38;8.10;32.90
20498;DHT22;10407;53.238;10.448;2023-04-03T13:42:21;7.70;34.70
20498;DHT22;10407;53.238;10.448;2023-04-03T13:44:46;8.30;33.20
20498;DHT22;10407;53.238;10.448;2023-04-03T13:47:22;8.00;32.90
20498;DHT22;10407;53.238;10.448;2023-04-03T13:52:47;8.40;31.50
20498;DHT22;10407;53.238;10.448;2023-04-03T13:55:26;8.50;31.40
20498;DHT22;10407;53.238;10.448;2023-04-03T13:57:57;7.80;29.40
20498;DHT22;10407;53.238;10.448;2023-04-03T14:03:24;7.70;29.30
20498;DHT22;10407;53.238;10.448;2023-04-03T14:05:53;8.10;32.10
20498;DHT22;10407;53.238;10.448;2023-04-03T14:08:22;8.30;29.90
20498;DHT22;10407;53.238;10.448;2023-04-03T14:10:50;8.50;31.50
20498;DHT22;10407;53.238;10.448;2023-04-03T14:13:19;7.90;28.80
20498;DHT22;10407;53.238;10.448;2023-04-03T14:15:48;7.60;31.60
20498;DHT22;10407;53.238;10.448;2023-04-03T14:18:19;7.30;34.50
20498;DHT22;10407;53.238;10.448;2023-04-03T14:20:49;7.30;32.90
20498;DHT22;10407;53.238;10.448;2023-04-03T14:23:17;7.20;33.70
20498;DHT22;10407;53.238;10.448;2023-04-03T14:25:44;8.10;33.20
20498;DHT22;10407;53.238;10.448;2023-04-03T14:28:15;8.00;29.70
20498;DHT22;10407;53.238;10.448;2023-04-03T14:30:43;7.90;28.70
20498;DHT22;10407;53.238;10.448;2023-04-03T14:33:13;7.50;27.40
20498;DHT22;10407;53.238;10.448;2023-04-03T14:35:41;7.70;28.40
20498;DHT22;10407;53.238;10.448;2023-04-03T14:38:28;8.40;29.40
20498;DHT22;10407;53.238;10.448;2023-04-03T14:40:56;7.90;26.80
20498;DHT22;10407;53.238;10.448;2023-04-03T14:43:23;8.30;29.80
20498;DHT22;10407;53.238;10.448;2023-04-03T14:45:52;7.70;27.20
20498;DHT22;10407;53.238;10.448;2023-04-03T14:48:23;7.90;29.10
20498;DHT22;10407;53.238;10.448;2023-04-03T14:50:52;7.60;27.80
20498;DHT22;10407;53.238;10.448;2023-04-03T14:53:20;7.40;27.70
20498;DHT22;10407;53.238;10.448;2023-04-03T14:55:50;7.50;29.70
20498;DHT22;10407;53.238;10.448;2023-04-03T14:58:20;7.80;27.10
20498;DHT22;10407;53.238;10.448;2023-04-03T15:00:48;7.50;28.00
20498;DHT22;10407;53.238;10.448;2023-04-03T15:03:21;7.60;29.00
20498;DHT22;10407;53.238;10.448;2023-04-03T15:05:49;7.20;29.80
20498;DHT22;10407;53.238;10.448;2023-04-03T15:08:22;6.90;29.30
20498;DHT22;10407;53.238;10.448;2023-04-03T15:10:51;6.80;28.40
20498;DHT22;10407;53.238;10.448;2023-04-03T15:13:23;7.10;29.40
20498;DHT22;10407;53.238;10.448;2023-04-03T15:15:52;7.40;29.30
20498;DHT22;10407;53.238;10.448;2023-04-03T15:18:25;7.30;27.20
20498;DHT22;10407;53.238;10.448;2023-04-03T15:20:54;7.00;26.30
20498;DHT22;10407;53.238;10.448;2023-04-03T15:23:22;7.10;26.70
20498;DHT22;10407;53.238;10.448;2023-04-03T15:25:53;7.00;27.20
20498;DHT22;10407;53.238;10.448;2023-04-03T15:28:33;7.10;27.40
20498;DHT22;10407;53.238;10.448;2023-04-03T15:30:58;7.40;27.90
20498;DHT22;10407;53.238;10.448;2023-04-03T15:33:26;7.00;25.50
20498;DHT22;10407;53.238;10.448;2023-04-03T15:35:54;6.80;25.80
20498;DHT22;10407;53.238;10.448;2023-04-03T15:38:22;7.00;27.70
20498;DHT22;10407;53.238;10.448;2023-04-03T15:40:50;7.40;28.00
20498;DHT22;10407;53.238;10.448;2023-04-03T15:43:17;7.50;26.40
20498;DHT22;10407;53.238;10.448;2023-04-03T15:45:45;7.40;25.40
20498;DHT22;10407;53.238;10.448;2023-04-03T15:48:13;7.10;24.70
20498;DHT22;10407;53.238;10.448;2023-04-03T15:50:41;6.80;25.10
20498;DHT22;10407;53.238;10.448;2023-04-03T15:53:09;7.10;26.00
20498;DHT22;10407;53.238;10.448;2023-04-03T15:55:38;7.00;25.00
20498;DHT22;10407;53.238;10.448;2023-04-03T15:58:05;6.60;24.90
20498;DHT22;10407;53.238;10.448;2023-04-03T16:00:33;6.90;25.40
20498;DHT22;10407;53.238;10.448;2023-04-03T16:03:05;7.00;27.10
20498;DHT22;10407;53.238;10.448;2023-04-03T16:05:33;7.10;25.80
20498;DHT22;10407;53.238;10.448;2023-04-03T16:08:02;6.70;25.70
20498;DHT22;10407;53.238;10.448;2023-04-03T16:10:30;6.60;28.10
20498;DHT22;10407;53.238;10.448;2023-04-03T16:12:58;6.80;28.00
20498;DHT22;10407;53.238;10.448;2023-04-03T16:15:26;6.60;29.50
20498;DHT22;10407;53.238;10.448;2023-04-03T16:17:54;6.40;31.70
20498;DHT22;10407;53.238;10.448;2023-04-03T16:20:22;6.50;29.40
20498;DHT22;10407;53.238;10.448;2023-04-03T16:22:51;6.60;31.90
20498;DHT22;10407;53.238;10.448;2023-04-03T16:25:18;6.50;31.80
20498;DHT22;10407;53.238;10.448;2023-04-03T16:27:47;6.50;33.40
20498;DHT22;10407;53.238;10.448;2023-04-03T16:30:15;6.60;33.90
20498;DHT22;10407;53.238;10.448;2023-04-03T16:32:42;6.80;34.80
20498;DHT22;10407;53.238;10.448;2023-04-03T16:35:10;6.70;33.50
20498;DHT22;10407;53.238;10.448;2023-04-03T16:37:39;6.30;34.90
20498;DHT22;10407;53.238;10.448;2023-04-03T16:40:08;6.40;36.60
20498;DHT22;10407;53.238;10.448;2023-04-03T16:42:36;6.30;36.00
20498;DHT22;10407;53.238;10.448;2023-04-03T16:45:05;6.10;35.40
20498;DHT22;10407;53.238;10.448;2023-04-03T16:47:33;6.10;36.80
20498;DHT22;10407;53.238;10.448;2023-04-03T16:50:01;6.00;38.90
20498;DHT22;10407;53.238;10.448;2023-04-03T16:52:28;5.80;40.70
20498;DHT22;10407;53.238;10.448;2023-04-03T16:54:56;5.90;42.40
20498;DHT22;10407;53.238;10.448;2023-04-03T16:57:25;5.80;45.20
20498;DHT22;10407;53.238;10.448;2023-04-03T16:59:53;5.90;44.00
20498;DHT22;10407;53.238;10.448;2023-04-03T17:02:21;6.20;43.00
20498;DHT22;10407;53.238;10.448;2023-04-03T17:04:54;6.10;42.40
20498;DHT22;10407;53.238;10.448;2023-04-03T17:07:23;5.80;44.10
20498;DHT22;10407;53.238;10.448;2023-04-03T17:09:51;5.70;45.50
20498;DHT22;10407;53.238;10.448;2023-04-03T17:12:20;5.50;44.20
20498;DHT22;10407;53.238;10.448;2023-04-03T17:14:48;5.80;43.60
20498;DHT22;10407;53.238;10.448;2023-04-03T17:17:18;5.50;45.80
20498;DHT22;10407;53.238;10.448;2023-04-03T17:19:47;5.50;47.90
20498;DHT22;10407;53.238;10.448;2023-04-03T17:22:14;5.50;47.30
20498;DHT22;10407;53.238;10.448;2023-04-03T17:24:43;5.50;46.80
20498;DHT22;10407;53.238;10.448;2023-04-03T17:27:11;5.30;46.30